Time;durP1;ratioP1;P1;durP2;ratioP2;P2;SDS_P1;SDS_P2;PMS_P1;PMS_P2;Temp;Humidity;BMP_temperature;BMP_pressure;BME280_temperature;BME280_humidity;BME280_pressure;Samples;Min_cycle;Max_cycle;Signal;HPM_P1;HPM_P2
2023/09/27 00:01:28;;;;;;;6.60;6.00;;;14.30;99.90;;;;;;4996295;28;20050;-91
2023/09/27 00:03:54;;;;;;;7.25;5.60;;;14.40;99.90;;;;;;4998479;28;20088;-91
2023/09/27 00:06:19;;;;;;;6.57;5.80;;;14.40;99.00;;;;;;4980362;28;20081;-90
2023/09/27 00:08:45;;;;;;;7.07;6.53;;;14.40;99.70;;;;;;4997439;28;20030;-91
2023/09/27 00:11:11;;;;;;;7.10;6.60;;;14.40;99.30;;;;;;4996835;28;20576;-90
2023/09/27 00:13:37;;;;;;;7.60;7.07;;;14.20;98.90;;;;;;4995979;28;20033;-90
2023/09/27 00:16:05;;;;;;;6.85;6.25;;;14.20;99.10;;;;;;4996633;28;20053;-90
2023/09/27 00:18:31;;;;;;;6.63;6.00;;;14.20;98.90;;;;;;4979277;28;20023;-90
2023/09/27 00:20:57;;;;;;;7.28;6.45;;;14.10;99.50;;;;;;4996254;28;20050;-91
2023/09/27 00:23:23;;;;;;;8.00;6.47;;;14.10;99.90;;;;;;4996157;28;20033;-90
2023/09/27 00:25:48;;;;;;;5.88;5.32;;;14.20;99.80;;;;;;4978621;28;20031;-90
2023/09/27 00:28:14;;;;;;;6.93;6.30;;;14.10;99.90;;;;;;4996160;28;20026;-91
2023/09/27 00:30:45;;;;;;;8.23;7.47;;;14.20;99.90;;;;;;4980082;28;20559;-91
2023/09/27 00:33:11;;;;;;;6.95;5.95;;;14.10;99.70;;;;;;4997001;28;20100;-90
2023/09/27 00:35:37;;;;;;;6.25;5.65;;;14.10;99.40;;;;;;4996584;28;20316;-89
2023/09/27 00:38:03;;;;;;;8.23;6.20;;;14.10;98.70;;;;;;4997187;28;20023;-89
2023/09/27 00:40:32;;;;;;;6.10;5.50;;;14.20;98.20;;;;;;4975363;28;20053;-90
2023/09/27 00:42:57;;;;;;;7.28;6.10;;;14.00;99.10;;;;;;5001465;28;20027;-90
2023/09/27 00:45:26;;;;;;;6.88;5.63;;;13.90;99.90;;;;;;4992603;28;20083;-91
2023/09/27 00:47:56;;;;;;;7.72;7.13;;;14.10;99.00;;;;;;5000945;28;20022;-90
2023/09/27 00:50:22;;;;;;;7.28;5.90;;;14.00;99.40;;;;;;5000933;28;20480;-90
2023/09/27 00:52:48;;;;;;;6.93;6.32;;;14.00;99.90;;;;;;4983158;28;20114;-90
2023/09/27 00:55:16;;;;;;;6.30;5.70;;;14.00;99.90;;;;;;5000202;28;20051;-90
2023/09/27 00:57:42;;;;;;;6.63;6.00;;;14.00;99.90;;;;;;4995845;28;20026;-90
2023/09/27 01:00:10;;;;;;;8.10;7.40;;;13.90;99.90;;;;;;5001740;28;20126;-90
2023/09/27 01:02:36;;;;;;;7.97;7.30;;;13.90;99.50;;;;;;5000987;28;20037;-90
2023/09/27 01:05:02;;;;;;;6.82;6.22;;;13.80;99.90;;;;;;5007395;28;20006;-91
2023/09/27 01:07:28;;;;;;;7.07;6.25;;;13.80;99.90;;;;;;5018329;28;20014;-90
2023/09/27 01:09:54;;;;;;;7.97;7.25;;;13.80;99.90;;;;;;5016903;28;20034;-91
2023/09/27 01:12:20;;;;;;;6.63;6.03;;;13.80;99.90;;;;;;5016653;28;20049;-92
2023/09/27 01:14:46;;;;;;;6.38;5.78;;;13.80;99.90;;;;;;5012556;28;20046;-90
2023/09/27 01:17:12;;;;;;;6.45;5.95;;;13.70;99.90;;;;;;4981484;28;20109;-91
2023/09/27 01:19:41;;;;;;;7.15;6.45;;;13.70;99.90;;;;;;4981303;28;20053;-91
2023/09/27 01:22:07;;;;;;;6.75;6.15;;;13.60;99.90;;;;;;4999284;28;20027;-90
2023/09/27 01:24:38;;;;;;;7.50;6.88;;;13.60;99.90;;;;;;5000100;28;20033;-90
2023/09/27 01:27:09;;;;;;;8.80;7.95;;;13.60;99.90;;;;;;4982118;28;20058;-90
2023/09/27 01:29:35;;;;;;;7.25;6.35;;;13.50;99.90;;;;;;5001085;28;20034;-90
2023/09/27 01:32:01;;;;;;;6.80;6.28;;;13.40;99.90;;;;;;5000361;28;20027;-91
2023/09/27 01:34:27;;;;;;;6.05;5.55;;;13.30;99.90;;;;;;4982002;28;20081;-90
2023/09/27 01:36:54;;;;;;;7.40;6.70;;;13.40;99.90;;;;;;5000181;28;20034;-91
2023/09/27 01:39:19;;;;;;;7.50;6.90;;;13.40;99.90;;;;;;4982552;28;20030;-90
2023/09/27 01:41:45;;;;;;;6.28;5.47;;;13.50;99.90;;;;;;5000430;28;20440;-90
2023/09/27 01:44:18;;;;;;;6.70;6.10;;;13.50;99.90;;;;;;5000370;28;20057;-90
2023/09/27 01:46:43;;;;;;;7.45;6.75;;;13.50;99.90;;;;;;5000269;28;20030;-92
2023/09/27 01:49:11;;;;;;;7.60;6.93;;;13.50;99.90;;;;;;5000582;28;20026;-90
2023/09/27 01:51:37;;;;;;;7.40;6.88;;;13.50;99.90;;;;;;4981778;28;20026;-91
2023/09/27 01:54:03;;;;;;;6.65;6.03;;;13.60;99.90;;;;;;4982427;28;20041;-90
2023/09/27 01:56:29;;;;;;;6.85;6.25;;;13.40;99.90;;;;;;4998622;28;20025;-91
2023/09/27 01:58:55;;;;;;;8.35;7.55;;;13.40;99.90;;;;;;4982070;28;20089;-91
2023/09/27 02:01:20;;;;;;;6.28;5.78;;;13.40;99.90;;;;;;4981241;28;20046;-89
2023/09/27 02:03:46;;;;;;;7.60;7.00;;;13.40;99.90;;;;;;4997652;28;20030;-90
2023/09/27 02:06:12;;;;;;;7.57;6.88;;;13.50;99.90;;;;;;4998016;28;20086;-91
2023/09/27 02:08:40;;;;;;;7.38;6.82;;;13.50;99.90;;;;;;4998724;28;20044;-90
2023/09/27 02:11:06;;;;;;;6.70;6.10;;;13.50;99.90;;;;;;4997367;28;20046;-91
2023/09/27 02:13:32;;;;;;;6.78;6.15;;;13.30;99.90;;;;;;4979998;28;20038;-90
2023/09/27 02:15:58;;;;;;;6.50;5.90;;;13.30;99.90;;;;;;4982372;28;20024;-91
2023/09/27 02:18:27;;;;;;;8.65;6.00;;;13.20;99.90;;;;;;4998781;28;20050;-90
2023/09/27 02:20:56;;;;;;;7.85;7.25;;;13.20;99.60;;;;;;4984112;28;20021;-91
2023/09/27 02:23:21;;;;;;;8.35;7.50;;;13.20;99.30;;;;;;4981590;28;20129;-90
2023/09/27 02:25:56;;;;;;;6.97;6.30;;;13.20;99.70;;;;;;4998634;28;20054;-90
2023/09/27 02:28:22;;;;;;;6.15;5.68;;;13.10;99.40;;;;;;4998342;28;20022;-90
2023/09/27 02:30:50;;;;;;;7.00;6.38;;;13.10;99.90;;;;;;4999917;28;20022;-90
2023/09/27 02:33:17;;;;;;;6.88;6.32;;;12.90;99.90;;;;;;4999137;28;20022;-89
2023/09/27 02:35:45;;;;;;;7.40;6.55;;;12.80;99.90;;;;;;4998639;28;20030;-91
2023/09/27 02:38:11;;;;;;;7.30;6.70;;;12.70;99.90;;;;;;4985522;28;20088;-89
2023/09/27 02:40:37;;;;;;;8.00;7.30;;;12.60;99.90;;;;;;4979394;28;20023;-90
2023/09/27 02:43:09;;;;;;;6.80;6.30;;;12.60;99.90;;;;;;4999320;28;20098;-91
2023/09/27 02:45:34;;;;;;;6.47;5.88;;;12.40;99.90;;;;;;4998547;28;20086;-90
2023/09/27 02:48:01;;;;;;;7.22;6.63;;;12.50;99.90;;;;;;4996839;28;20050;-90
2023/09/27 02:50:27;;;;;;;7.53;6.93;;;12.40;99.90;;;;;;4979456;28;20018;-90
2023/09/27 02:52:52;;;;;;;6.90;6.25;;;12.40;99.90;;;;;;4997996;28;20041;-92
2023/09/27 02:55:18;;;;;;;22.10;6.20;;;12.40;99.90;;;;;;4981087;28;20030;-91
2023/09/27 02:57:50;;;;;;;8.93;6.35;;;12.30;99.90;;;;;;4997857;28;20026;-90
2023/09/27 03:00:21;;;;;;;11.63;6.68;;;12.30;99.90;;;;;;4997321;28;20155;-90
2023/09/27 03:02:47;;;;;;;9.07;8.43;;;12.30;99.90;;;;;;4996369;28;20022;-90
2023/09/27 03:05:12;;;;;;;7.47;6.78;;;12.30;99.90;;;;;;4997135;28;20080;-90
2023/09/27 03:07:38;;;;;;;10.63;7.07;;;12.30;99.90;;;;;;4998680;28;20022;-90
2023/09/27 03:10:08;;;;;;;6.80;5.80;;;12.30;99.90;;;;;;4997386;28;20041;-91
2023/09/27 03:12:34;;;;;;;7.03;6.43;;;12.30;99.90;;;;;;4997282;28;20117;-90
2023/09/27 03:15:03;;;;;;;7.47;6.05;;;12.30;99.90;;;;;;4998910;28;20018;-91
2023/09/27 03:17:30;;;;;;;8.25;6.78;;;12.40;99.90;;;;;;5008042;28;20046;-90
2023/09/27 03:19:55;;;;;;;8.20;7.05;;;12.40;99.90;;;;;;4998725;28;20033;-90
2023/09/27 03:22:21;;;;;;;8.95;8.20;;;12.50;99.90;;;;;;4986342;28;20023;-90
2023/09/27 03:24:51;;;;;;;6.80;6.20;;;12.50;99.90;;;;;;4979923;28;20034;-90
2023/09/27 03:27:16;;;;;;;6.50;5.90;;;12.60;99.90;;;;;;4997867;28;20015;-90
2023/09/27 03:29:42;;;;;;;6.15;5.65;;;12.50;99.90;;;;;;4997520;28;20125;-91
2023/09/27 03:32:11;;;;;;;6.63;6.03;;;12.40;99.90;;;;;;4997302;28;20050;-90
2023/09/27 03:34:39;;;;;;;7.38;6.70;;;12.30;99.90;;;;;;4997618;28;20034;-91
2023/09/27 03:37:05;;;;;;;7.43;6.82;;;12.20;99.90;;;;;;4997568;28;20150;-90
2023/09/27 03:39:35;;;;;;;7.93;7.22;;;12.20;99.90;;;;;;4998524;28;20050;-90
2023/09/27 03:42:02;;;;;;;7.10;6.43;;;12.10;99.90;;;;;;4997887;28;20160;-91
2023/09/27 03:44:28;;;;;;;7.85;6.32;;;12.10;99.90;;;;;;4998205;28;20481;-93
2023/09/27 03:46:57;;;;;;;7.95;7.22;;;12.10;99.90;;;;;;4998018;28;20034;-91
2023/09/27 03:49:23;;;;;;;7.88;6.75;;;12.10;99.90;;;;;;4980380;28;20052;-91
2023/09/27 03:51:49;;;;;;;8.43;7.57;;;12.10;99.90;;;;;;4995756;28;20027;-91
2023/09/27 03:54:15;;;;;;;11.07;7.05;;;12.10;99.90;;;;;;4979700;28;20515;-92
2023/09/27 03:56:41;;;;;;;8.20;7.13;;;12.20;99.90;;;;;;4996716;28;20029;-93
2023/09/27 03:59:07;;;;;;;9.57;8.57;;;12.20;99.90;;;;;;4993348;28;20030;-92
2023/09/27 04:01:35;;;;;;;12.10;8.15;;;12.30;99.90;;;;;;4991093;28;20084;-90
2023/09/27 04:04:04;;;;;;;10.32;7.95;;;12.20;99.90;;;;;;4995079;28;20023;-91
2023/09/27 04:06:29;;;;;;;16.98;8.45;;;12.20;99.90;;;;;;4994120;28;20101;-90
2023/09/27 04:08:55;;;;;;;20.23;9.20;;;12.30;99.90;;;;;;4976977;28;20018;-89
2023/09/27 04:11:21;;;;;;;15.73;8.13;;;12.20;99.90;;;;;;4993355;28;20033;-90
2023/09/27 04:13:48;;;;;;;23.48;10.45;;;12.20;99.90;;;;;;4999462;28;20018;-90
2023/09/27 04:16:14;;;;;;;12.10;9.85;;;12.20;99.90;;;;;;4982516;28;20026;-89
2023/09/27 04:18:40;;;;;;;19.23;8.82;;;12.20;99.90;;;;;;5001308;28;20477;-90
2023/09/27 04:21:08;;;;;;;9.75;7.45;;;12.20;99.90;;;;;;5000332;28;20030;-90
2023/09/27 04:23:36;;;;;;;9.90;8.07;;;12.10;99.90;;;;;;5001597;28;20034;-90
2023/09/27 04:26:05;;;;;;;20.83;11.25;;;12.10;99.90;;;;;;5000403;28;20037;-88
2023/09/27 04:28:31;;;;;;;20.63;7.68;;;12.20;99.90;;;;;;5000557;28;20049;-89
2023/09/27 04:31:00;;;;;;;11.88;7.72;;;12.10;99.90;;;;;;5000827;28;20131;-91
2023/09/27 04:33:26;;;;;;;15.02;6.32;;;12.00;99.90;;;;;;5000967;28;20385;-89
2023/09/27 04:35:52;;;;;;;17.25;8.25;;;12.00;99.90;;;;;;4983793;28;20035;-89
2023/09/27 04:38:17;;;;;;;9.02;7.28;;;12.00;99.90;;;;;;4984219;28;20022;-89
2023/09/27 04:40:43;;;;;;;8.27;7.53;;;12.00;99.90;;;;;;5001929;28;20078;-88
2023/09/27 04:43:12;;;;;;;7.93;7.22;;;12.00;99.90;;;;;;4984073;28;20054;-90
2023/09/27 04:45:38;;;;;;;7.53;6.75;;;12.00;99.90;;;;;;5001113;28;20029;-89
2023/09/27 04:48:04;;;;;;;7.55;6.82;;;12.10;99.90;;;;;;5001085;28;20045;-89
2023/09/27 04:50:30;;;;;;;7.72;7.03;;;12.10;99.90;;;;;;5000776;28;20076;-89
2023/09/27 04:52:55;;;;;;;7.38;6.60;;;12.10;99.90;;;;;;5000269;28;20057;-88
2023/09/27 04:55:21;;;;;;;7.72;7.00;;;12.20;99.90;;;;;;4998794;28;20034;-90
2023/09/27 04:57:47;;;;;;;7.90;7.05;;;12.30;99.90;;;;;;4999176;28;20021;-89
2023/09/27 05:00:19;;;;;;;6.97;6.38;;;12.30;99.90;;;;;;4981548;28;20112;-91
2023/09/27 05:02:45;;;;;;;7.85;7.00;;;12.20;99.90;;;;;;4998680;28;20460;-89
2023/09/27 05:05:11;;;;;;;7.65;6.95;;;12.30;99.90;;;;;;4999195;28;20026;-89
2023/09/27 05:07:37;;;;;;;6.97;6.38;;;12.20;99.90;;;;;;4999929;28;20042;-91
2023/09/27 05:10:09;;;;;;;8.55;7.85;;;12.20;99.90;;;;;;5003556;28;20035;-88
2023/09/27 05:12:44;;;;;;;7.63;7.03;;;12.10;99.90;;;;;;4982373;28;20630;-89
2023/09/27 05:15:10;;;;;;;7.80;7.10;;;12.00;99.90;;;;;;4988222;28;20022;-90
2023/09/27 05:17:35;;;;;;;9.27;8.57;;;11.80;99.90;;;;;;4987143;28;20092;-88
2023/09/27 05:20:06;;;;;;;7.35;6.60;;;11.80;99.90;;;;;;4985651;28;20026;-90
2023/09/27 05:22:33;;;;;;;7.93;6.90;;;11.80;99.90;;;;;;4978249;28;20073;-91
2023/09/27 05:25:08;;;;;;;9.35;6.78;;;11.80;99.90;;;;;;4989108;28;20025;-91
2023/09/27 05:27:34;;;;;;;7.53;6.38;;;11.80;99.90;;;;;;4984029;28;20038;-91
2023/09/27 05:30:11;;;;;;;6.68;6.07;;;11.80;99.90;;;;;;4985720;28;20030;-91
2023/09/27 05:32:37;;;;;;;8.85;8.00;;;11.90;99.90;;;;;;4971434;28;20109;-90
2023/09/27 05:35:11;;;;;;;8.10;7.20;;;11.80;99.90;;;;;;4986312;28;20042;-89
2023/09/27 05:37:36;;;;;;;8.75;7.85;;;11.80;99.90;;;;;;4967409;28;20039;-89
2023/09/27 05:40:04;;;;;;;6.70;6.07;;;11.90;99.90;;;;;;4979939;28;20089;-89
2023/09/27 05:42:30;;;;;;;6.95;6.25;;;11.80;99.90;;;;;;4987742;28;20049;-90
2023/09/27 05:45:05;;;;;;;8.95;7.40;;;11.70;99.90;;;;;;4974055;28;20835;-89
2023/09/27 05:47:33;;;;;;;8.82;6.88;;;11.80;99.90;;;;;;4985454;28;20184;-90
2023/09/27 05:49:58;;;;;;;7.30;6.60;;;11.70;99.90;;;;;;4990477;28;20026;-91
2023/09/27 05:52:24;;;;;;;8.07;7.40;;;11.70;99.90;;;;;;4987608;28;20026;-90
2023/09/27 05:54:51;;;;;;;8.32;7.32;;;11.70;99.90;;;;;;4984791;28;20038;-89
2023/09/27 05:57:21;;;;;;;7.55;6.90;;;11.70;99.90;;;;;;4968089;28;20089;-90
2023/09/27 05:59:47;;;;;;;7.70;6.95;;;11.60;99.90;;;;;;4981856;28;20073;-90
2023/09/27 06:02:20;;;;;;;5.97;5.47;;;11.70;99.90;;;;;;4982291;28;20054;-90
2023/09/27 06:04:46;;;;;;;7.90;5.47;;;11.70;99.90;;;;;;4985956;28;20033;-90
2023/09/27 06:07:17;;;;;;;6.78;6.07;;;11.80;99.90;;;;;;4987203;28;20094;-89
2023/09/27 06:09:44;;;;;;;6.50;5.90;;;11.70;99.90;;;;;;4986635;28;20030;-89
2023/09/27 06:12:10;;;;;;;6.57;5.97;;;11.60;99.90;;;;;;4993763;28;20033;-90
2023/09/27 06:14:38;;;;;;;6.95;6.25;;;11.60;99.90;;;;;;4979081;28;20027;-90
2023/09/27 06:17:04;;;;;;;7.13;6.53;;;11.60;99.90;;;;;;4997349;28;20693;-88
2023/09/27 06:19:33;;;;;;;7.72;7.10;;;11.60;99.90;;;;;;4998732;28;20248;-89
2023/09/27 06:21:59;;;;;;;7.15;6.55;;;11.70;99.90;;;;;;4998208;28;20483;-90
2023/09/27 06:24:28;;;;;;;7.55;6.85;;;11.60;99.90;;;;;;4997062;28;20073;-90
2023/09/27 06:26:54;;;;;;;8.65;7.95;;;11.70;99.90;;;;;;4997249;28;20041;-90
2023/09/27 06:29:20;;;;;;;7.93;7.22;;;11.70;99.90;;;;;;4997708;28;20101;-90
2023/09/27 06:31:49;;;;;;;8.57;7.80;;;11.80;99.90;;;;;;4999914;28;20495;-89
2023/09/27 06:34:16;;;;;;;7.32;6.63;;;11.90;99.90;;;;;;5005106;28;20030;-89
2023/09/27 06:36:42;;;;;;;9.45;7.60;;;12.00;99.90;;;;;;5012393;28;20083;-90
2023/09/27 06:39:14;;;;;;;13.05;7.75;;;12.00;99.90;;;;;;5010036;28;20081;-89
2023/09/27 06:41:45;;;;;;;12.15;7.55;;;12.00;99.90;;;;;;4998830;28;20029;-90
2023/09/27 06:44:12;;;;;;;11.10;7.18;;;12.20;99.90;;;;;;4997305;28;20048;-89
2023/09/27 06:46:38;;;;;;;9.00;7.10;;;12.20;99.90;;;;;;4997003;28;20030;-89
2023/09/27 06:49:04;;;;;;;7.70;7.10;;;12.30;99.90;;;;;;4996056;28;20041;-89
2023/09/27 06:51:31;;;;;;;9.25;8.45;;;12.30;99.90;;;;;;4996148;28;20030;-88
2023/09/27 06:53:57;;;;;;;7.60;6.85;;;12.40;99.90;;;;;;4995610;28;20053;-89
2023/09/27 06:56:23;;;;;;;7.55;6.85;;;12.40;99.90;;;;;;4978757;28;20018;-89
2023/09/27 06:58:51;;;;;;;8.00;7.30;;;12.60;99.90;;;;;;4995978;28;20023;-88
2023/09/27 07:01:18;;;;;;;8.50;7.80;;;12.60;99.90;;;;;;4975638;28;20402;-90
2023/09/27 07:03:44;;;;;;;7.60;6.97;;;12.70;99.90;;;;;;5003819;28;20034;-89
2023/09/27 07:06:10;;;;;;;7.38;6.78;;;12.80;99.90;;;;;;4980717;28;20022;-89
2023/09/27 07:08:36;;;;;;;8.15;7.35;;;12.90;99.90;;;;;;4998326;28;20041;-89
2023/09/27 07:11:07;;;;;;;7.57;6.68;;;13.00;99.90;;;;;;4997391;28;20026;-89
2023/09/27 07:13:34;;;;;;;7.47;6.78;;;13.00;99.90;;;;;;4997229;28;20022;-89
2023/09/27 07:16:03;;;;;;;8.85;8.05;;;13.20;99.90;;;;;;4979752;28;20446;-89
2023/09/27 07:18:29;;;;;;;11.05;8.73;;;13.40;99.90;;;;;;4997217;28;20026;-90
2023/09/27 07:20:54;;;;;;;10.75;8.27;;;13.50;99.90;;;;;;4997453;28;20326;-90
2023/09/27 07:23:21;;;;;;;9.82;8.88;;;13.60;99.90;;;;;;4997959;28;20049;-88
2023/09/27 07:25:47;;;;;;;8.02;7.28;;;13.60;99.90;;;;;;4999095;28;20467;-89
2023/09/27 07:28:14;;;;;;;11.93;10.07;;;13.70;99.90;;;;;;4998216;28;20084;-90
2023/09/27 07:30:39;;;;;;;11.55;8.93;;;13.80;99.90;;;;;;4980586;28;20073;-89
2023/09/27 07:33:10;;;;;;;11.57;10.38;;;13.90;99.90;;;;;;4996840;28;20030;-90
2023/09/27 07:35:41;;;;;;;10.25;9.20;;;14.00;99.90;;;;;;4998170;28;20035;-89
2023/09/27 07:38:09;;;;;;;9.93;8.93;;;14.00;99.90;;;;;;4997847;28;20036;-89
2023/09/27 07:40:35;;;;;;;;;;;14.60;99.90;;;;;;4998391;28;20085;-89
2023/09/27 07:43:00;;;;;;;9.18;8.15;;;14.60;99.90;;;;;;4997656;28;19909;-90
2023/09/27 07:45:28;;;;;;;12.50;9.88;;;14.60;99.90;;;;;;4977837;28;20027;-89
2023/09/27 07:47:54;;;;;;;11.13;10.13;;;14.60;99.90;;;;;;4996631;28;20026;-90
2023/09/27 07:50:31;;;;;;;10.85;9.77;;;14.60;99.90;;;;;;4997197;28;20392;-90
2023/09/27 07:53:00;;;;;;;10.20;9.10;;;14.70;99.90;;;;;;5000884;28;20048;-91
2023/09/27 07:55:26;;;;;;;9.48;8.57;;;14.70;99.90;;;;;;5000490;28;20027;-90
2023/09/27 07:57:54;;;;;;;9.45;8.55;;;14.80;99.90;;;;;;4999517;28;20018;-90
2023/09/27 08:00:28;;;;;;;10.27;9.02;;;14.90;99.90;;;;;;4991347;28;20036;-88
2023/09/27 08:03:00;;;;;;;;;;;15.00;99.90;;;;;;5001702;28;20031;-91
2023/09/27 08:05:26;;;;;;;11.68;10.48;;;15.00;99.90;;;;;;4982834;28;20434;-89
2023/09/27 08:07:52;;;;;;;10.25;9.25;;;15.10;99.90;;;;;;5000680;28;20026;-89
2023/09/27 08:10:22;;;;;;;11.70;10.43;;;15.20;99.90;;;;;;4991308;28;20030;-89
2023/09/27 08:12:48;;;;;;;10.52;9.52;;;15.30;99.90;;;;;;4984355;28;20038;-90
2023/09/27 08:15:14;;;;;;;11.18;10.07;;;15.40;99.90;;;;;;5000976;28;20488;-89
2023/09/27 08:17:39;;;;;;;14.93;10.90;;;15.50;99.90;;;;;;5000740;28;20082;-89
2023/09/27 08:20:12;;;;;;;13.07;10.60;;;15.50;99.90;;;;;;5001519;28;20030;-91
2023/09/27 08:22:42;;;;;;;17.48;11.32;;;15.60;99.90;;;;;;4983886;28;20030;-90
2023/09/27 08:25:15;;;;;;;12.65;11.45;;;15.70;99.90;;;;;;5000934;28;20022;-89
2023/09/27 08:27:44;;;;;;;12.55;11.10;;;15.80;99.90;;;;;;5000863;28;20030;-90
2023/09/27 08:30:12;;;;;;;11.95;10.70;;;15.90;99.90;;;;;;5000612;28;20018;-90
2023/09/27 08:32:38;;;;;;;12.05;10.85;;;16.00;99.90;;;;;;4982665;28;20032;-90
2023/09/27 08:35:05;;;;;;;12.57;11.27;;;16.00;99.90;;;;;;5001520;28;20034;-89
2023/09/27 08:37:31;;;;;;;11.77;10.65;;;16.10;99.90;;;;;;5001157;28;20023;-90
2023/09/27 08:39:57;;;;;;;11.93;10.13;;;16.20;99.90;;;;;;5000291;28;20737;-90
2023/09/27 08:42:24;;;;;;;10.32;9.02;;;16.40;99.90;;;;;;4982976;28;20030;-89
2023/09/27 08:44:55;;;;;;;12.23;11.05;;;16.40;99.90;;;;;;4981317;28;20026;-88
2023/09/27 08:47:29;;;;;;;10.98;9.88;;;16.50;99.90;;;;;;4998863;28;20018;-89
2023/09/27 08:49:57;;;;;;;10.40;9.27;;;16.60;99.90;;;;;;4999382;28;20105;-90
2023/09/27 08:52:26;;;;;;;11.40;9.95;;;16.80;99.90;;;;;;4998640;28;20053;-90
2023/09/27 08:54:58;;;;;;;11.55;10.45;;;16.90;99.90;;;;;;5005742;28;20081;-90
2023/09/27 08:57:47;;;;;;;13.40;12.20;;;17.10;99.90;;;;;;5001597;28;20030;-90
2023/09/27 09:00:28;;;;;;;12.60;11.35;;;17.20;99.90;;;;;;5000937;28;20287;-91
2023/09/27 09:02:59;;;;;;;10.35;9.27;;;17.30;99.90;;;;;;4999448;28;20069;-91
2023/09/27 09:05:28;;;;;;;11.60;10.18;;;17.40;99.90;;;;;;4983564;28;20065;-90
2023/09/27 09:07:55;;;;;;;10.73;9.65;;;17.60;98.70;;;;;;4999355;28;20115;-90
2023/09/27 09:10:24;;;;;;;11.07;9.85;;;17.80;98.10;;;;;;5000480;28;20026;-92
2023/09/27 09:13:21;;;;;;;9.63;8.73;;;17.80;96.80;;;;;;4999612;28;20027;-90
2023/09/27 09:15:48;;;;;;;10.95;10.02;;;18.00;96.30;;;;;;4983370;28;20369;-90
2023/09/27 09:18:32;;;;;;;9.90;8.68;;;18.20;95.00;;;;;;4999961;28;20030;-89
2023/09/27 09:21:08;;;;;;;10.60;9.57;;;18.40;92.00;;;;;;4981128;28;20022;-91
2023/09/27 09:23:36;;;;;;;9.70;8.70;;;18.20;90.50;;;;;;4999994;28;20030;-91
2023/09/27 09:26:11;;;;;;;;;;;18.50;90.60;;;;;;4982366;28;20033;-90
2023/09/27 09:28:57;;;;;;;9.65;8.75;;;18.60;90.10;;;;;;4999934;28;19992;-90
2023/09/27 09:31:50;;;;;;;10.32;9.02;;;18.80;89.50;;;;;;4981767;28;20145;-91
2023/09/27 09:34:19;;;;;;;11.40;9.07;;;19.10;88.20;;;;;;4985668;28;20026;-92
2023/09/27 09:36:45;;;;;;;9.80;8.93;;;19.20;86.90;;;;;;4998292;28;20045;-91
2023/09/27 09:39:21;;;;;;;9.15;8.30;;;19.40;85.90;;;;;;4999073;28;20049;-89
2023/09/27 09:41:53;;;;;;;9.57;8.68;;;19.60;86.10;;;;;;4998170;28;20034;-90
2023/09/27 09:44:28;;;;;;;9.82;8.93;;;19.80;84.70;;;;;;4981048;28;20090;-91
2023/09/27 09:47:19;;;;;;;7.43;6.60;;;20.20;83.60;;;;;;4998149;28;20050;-90
2023/09/27 09:50:16;;;;;;;8.25;7.45;;;20.30;82.60;;;;;;5002775;28;20028;-90
2023/09/27 09:52:57;;;;;;;9.73;7.93;;;20.60;81.60;;;;;;4968505;28;20027;-90
2023/09/27 09:55:24;;;;;;;8.77;7.93;;;20.70;80.00;;;;;;4981430;28;20040;-90
2023/09/27 09:58:25;;;;;;;10.65;9.57;;;20.70;80.00;;;;;;4996480;28;20045;-89
2023/09/27 10:00:54;;;;;;;10.05;9.05;;;20.90;77.00;;;;;;4962983;28;20031;-90
2023/09/27 10:03:31;;;;;;;13.02;8.85;;;21.10;73.80;;;;;;4998471;28;20030;-88
2023/09/27 10:06:05;;;;;;;10.15;9.02;;;21.20;74.20;;;;;;4997371;28;20048;-91
2023/09/27 10:08:34;;;;;;;10.30;9.30;;;21.40;72.30;;;;;;4997391;28;20078;-90
2023/09/27 10:11:13;;;;;;;8.82;8.05;;;21.60;71.20;;;;;;4979404;28;20028;-90
2023/09/27 10:13:43;;;;;;;9.20;8.30;;;21.70;71.50;;;;;;4996629;28;20031;-90
2023/09/27 10:16:23;;;;;;;10.52;7.80;;;22.10;69.60;;;;;;4998361;28;20029;-90
2023/09/27 10:18:48;;;;;;;;;;;22.20;69.40;;;;;;4981012;28;20031;-90
2023/09/27 10:21:15;;;;;;;9.00;8.13;;;22.30;68.90;;;;;;4998252;28;19906;-91
2023/09/27 10:23:45;;;;;;;8.25;7.55;;;22.40;67.90;;;;;;4997793;28;20022;-88
2023/09/27 10:26:28;;;;;;;6.53;6.03;;;22.50;70.20;;;;;;4999210;28;20045;-88
2023/09/27 10:29:06;;;;;;;6.28;5.78;;;22.40;68.90;;;;;;4980605;28;20038;-89
2023/09/27 10:31:57;;;;;;;7.75;7.05;;;22.60;71.10;;;;;;4988711;28;20022;-90
2023/09/27 10:34:25;;;;;;;6.90;6.20;;;22.50;68.20;;;;;;4997861;28;20081;-90
2023/09/27 10:36:53;;;;;;;6.47;5.57;;;22.90;67.80;;;;;;4997146;28;20030;-91
2023/09/27 10:39:19;;;;;;;7.57;6.78;;;22.90;67.10;;;;;;4979565;28;20110;-90
2023/09/27 10:41:54;;;;;;;9.50;6.90;;;22.80;68.70;;;;;;4996306;28;20015;-92
2023/09/27 10:44:30;;;;;;;8.85;8.00;;;23.10;66.40;;;;;;4995606;28;20031;-92
2023/09/27 10:46:58;;;;;;;6.65;6.05;;;23.30;64.80;;;;;;4996865;28;20030;-91
2023/09/27 10:49:26;;;;;;;9.98;8.20;;;23.20;66.30;;;;;;4997642;28;20160;-90
2023/09/27 10:51:54;;;;;;;8.38;7.47;;;23.70;64.30;;;;;;4994034;28;20027;-89
2023/09/27 10:54:24;;;;;;;8.68;7.82;;;23.90;63.10;;;;;;4993308;28;20027;-89
2023/09/27 10:56:55;;;;;;;8.93;8.02;;;24.00;62.20;;;;;;4993862;28;20023;-87
2023/09/27 10:59:28;;;;;;;8.90;8.02;;;23.90;64.30;;;;;;4997674;28;20085;-89
2023/09/27 11:02:04;;;;;;;8.70;7.90;;;24.20;62.80;;;;;;4996602;28;20077;-91
2023/09/27 11:04:32;;;;;;;8.38;6.90;;;24.50;61.80;;;;;;4980411;28;20065;-90
2023/09/27 11:06:58;;;;;;;6.10;5.60;;;24.60;60.40;;;;;;4979434;28;20038;-90
2023/09/27 11:09:24;;;;;;;7.65;6.90;;;24.80;61.00;;;;;;4996876;28;20155;-89
2023/09/27 11:12:01;;;;;;;6.15;5.60;;;24.80;60.20;;;;;;4997034;28;20080;-92
2023/09/27 11:14:40;;;;;;;6.53;6.03;;;24.80;59.50;;;;;;4978866;28;20033;-91
2023/09/27 11:17:25;;;;;;;7.30;6.60;;;24.80;58.70;;;;;;4978022;28;20033;-90
2023/09/27 11:20:23;;;;;;;6.65;5.75;;;25.30;58.70;;;;;;4997624;28;20040;-91
2023/09/27 11:23:02;;;;;;;8.27;6.40;;;25.10;58.40;;;;;;4979402;28;20045;-92
2023/09/27 11:25:36;;;;;;;6.68;5.22;;;25.20;57.60;;;;;;4996814;28;20049;-91
2023/09/27 11:28:21;;;;;;;6.25;5.75;;;25.30;57.20;;;;;;4979936;28;20037;-91
2023/09/27 11:30:56;;;;;;;6.28;5.72;;;25.60;57.30;;;;;;4997776;28;20033;-92
2023/09/27 11:33:33;;;;;;;7.03;6.32;;;25.80;55.60;;;;;;4995451;28;20116;-91
2023/09/27 11:36:10;;;;;;;6.95;5.20;;;25.80;56.20;;;;;;4976863;28;20054;-92
2023/09/27 11:38:36;;;;;;;6.00;5.07;;;25.80;55.40;;;;;;4976688;28;20118;-91
2023/09/27 11:41:07;;;;;;;6.25;5.65;;;25.80;55.50;;;;;;4977653;28;20432;-91
2023/09/27 11:43:35;;;;;;;7.13;4.47;;;25.80;55.40;;;;;;4979894;28;20070;-91
2023/09/27 11:46:07;;;;;;;6.53;5.93;;;26.00;55.40;;;;;;4990359;28;20073;-92
2023/09/27 11:48:41;;;;;;;6.57;5.35;;;26.40;55.60;;;;;;4996758;28;20023;-90
2023/09/27 11:51:07;;;;;;;7.50;5.18;;;26.30;55.70;;;;;;4988974;28;20019;-93
2023/09/27 11:54:15;;;;;;;5.88;5.28;;;26.10;55.90;;;;;;4982706;28;20035;-91
2023/09/27 11:57:26;;;;;;;6.63;4.47;;;26.10;55.70;;;;;;4976123;28;20039;-92
2023/09/27 11:59:57;;;;;;;6.65;6.05;;;25.90;56.90;;;;;;4976122;28;20035;-93
2023/09/27 12:02:23;;;;;;;6.68;6.07;;;25.90;56.20;;;;;;4981113;28;20489;-90
2023/09/27 12:04:49;;;;;;;5.80;4.80;;;25.70;57.50;;;;;;4982520;28;20026;-91
2023/09/27 12:07:17;;;;;;;5.60;5.10;;;25.90;56.80;;;;;;4979970;28;20030;-90
2023/09/27 12:10:02;;;;;;;6.20;5.70;;;26.30;56.40;;;;;;4979820;28;20030;-93
2023/09/27 12:12:31;;;;;;;5.57;5.00;;;26.70;54.40;;;;;;4979555;28;20034;-91
2023/09/27 12:15:26;;;;;;;21.77;7.00;;;27.00;53.30;;;;;;4977044;28;20928;-92
2023/09/27 12:17:58;;;;;;;5.55;4.32;;;27.70;51.20;;;;;;4960009;28;20425;-91
2023/09/27 12:20:32;;;;;;;6.40;5.47;;;27.50;51.70;;;;;;4978018;28;20031;-92
2023/09/27 12:23:08;;;;;;;6.28;4.65;;;27.60;50.50;;;;;;4976888;28;20027;-91
2023/09/27 12:25:34;;;;;;;8.13;4.68;;;27.50;51.00;;;;;;4978281;28;20027;-91
2023/09/27 12:28:03;;;;;;;5.03;4.32;;;27.70;50.70;;;;;;4976385;28;20100;-93
2023/09/27 12:30:29;;;;;;;5.53;5.03;;;28.10;50.60;;;;;;4974936;28;20374;-92
2023/09/27 12:32:55;;;;;;;6.43;5.65;;;27.90;49.50;;;;;;4976021;28;20069;-91
2023/09/27 12:35:23;;;;;;;6.38;5.78;;;28.00;50.00;;;;;;4977841;28;20070;-92
2023/09/27 12:37:49;;;;;;;5.93;4.80;;;27.90;49.00;;;;;;4980357;28;20030;-92
2023/09/27 12:40:34;;;;;;;5.28;4.78;;;27.80;50.10;;;;;;4981586;28;20026;-91
2023/09/27 12:43:04;;;;;;;6.00;5.45;;;28.50;48.40;;;;;;4981343;28;20045;-92
2023/09/27 12:45:56;;;;;;;7.22;5.15;;;28.60;46.40;;;;;;4985236;28;20031;-92
2023/09/27 12:48:22;;;;;;;5.28;4.78;;;28.40;48.10;;;;;;4973336;28;20097;-92
2023/09/27 12:50:50;;;;;;;5.97;4.97;;;28.90;46.70;;;;;;4983264;28;20026;-92
2023/09/27 12:53:16;;;;;;;5.05;4.65;;;29.20;46.60;;;;;;4984702;28;20035;-91
2023/09/27 12:55:42;;;;;;;5.78;4.05;;;29.20;47.20;;;;;;5010156;23;20100;-92
2023/09/27 12:58:09;;;;;;;6.80;5.00;;;29.40;46.00;;;;;;5036983;28;20029;-91